createdAt,value
2022-11-04T00:00:40.069Z,16.50
2022-11-04T00:03:10.376Z,15.63
2022-11-04T00:05:40.397Z,16.83
2022-11-04T00:08:26.873Z,16.27
2022-11-04T00:11:15.429Z,14.77
2022-11-04T00:13:45.635Z,14.77
2022-11-04T00:16:34.177Z,13.00
2022-11-04T00:19:04.203Z,12.40
2022-11-04T00:21:51.310Z,9.73
2022-11-04T00:24:38.746Z,7.92
2022-11-04T00:27:28.551Z,6.30
2022-11-04T00:29:58.506Z,5.13
2022-11-04T00:32:45.939Z,4.07
2022-11-04T00:35:15.743Z,3.20
2022-11-04T00:37:46.495Z,2.90
2022-11-04T00:40:17.858Z,2.87
2022-11-04T00:42:47.776Z,3.10
2022-11-04T00:45:17.837Z,3.17
2022-11-04T00:47:47.706Z,3.07
2022-11-04T00:50:17.233Z,2.58
2022-11-04T00:52:46.998Z,2.57
2022-11-04T00:55:16.869Z,2.60
2022-11-04T00:57:46.653Z,2.50
2022-11-04T01:00:16.803Z,2.50
2022-11-04T01:02:46.892Z,2.97
2022-11-04T01:05:16.623Z,3.27
2022-11-04T01:07:46.397Z,4.30
2022-11-04T01:10:16.348Z,3.92
2022-11-04T01:12:46.257Z,5.20
2022-11-04T01:15:15.858Z,5.90
2022-11-04T01:17:45.618Z,6.63
2022-11-04T01:20:17.872Z,7.87
2022-11-04T01:22:48.286Z,7.25
2022-11-04T01:25:18.361Z,7.60
2022-11-04T01:27:48.019Z,7.53
2022-11-04T01:30:17.491Z,7.87
2022-11-04T01:32:47.516Z,7.80
2022-11-04T01:35:17.281Z,9.13
2022-11-04T01:37:47.198Z,8.70
2022-11-04T01:40:17.860Z,8.05
2022-11-04T01:42:48.188Z,8.13
2022-11-04T01:45:20.382Z,8.83
2022-11-04T01:48:08.339Z,8.77
2022-11-04T01:50:38.681Z,9.47
2022-11-04T01:53:17.085Z,10.60
2022-11-04T01:55:49.948Z,10.80
2022-11-04T01:58:21.503Z,12.00
2022-11-04T02:00:51.591Z,11.83
2022-11-04T02:03:33.434Z,11.97
2022-11-04T02:06:03.709Z,12.90
2022-11-04T02:11:03.822Z,14.45
2022-11-04T02:13:35.760Z,16.40
2022-11-04T02:16:27.809Z,15.87
2022-11-04T02:19:21.712Z,16.17
2022-11-04T02:22:03.291Z,18.00
2022-11-04T02:24:58.425Z,18.47
2022-11-04T02:28:01.280Z,18.27
2022-11-04T02:30:42.890Z,18.35
2022-11-04T02:33:30.311Z,19.40
2022-11-04T02:36:23.694Z,18.10
2022-11-04T02:39:05.087Z,19.37
2022-11-04T02:41:58.848Z,18.95
2022-11-04T02:44:49.523Z,18.50
2022-11-04T02:47:22.314Z,17.80
2022-11-04T02:50:01.267Z,16.77
2022-11-04T02:52:51.990Z,15.87
2022-11-04T02:55:33.381Z,15.83
2022-11-04T02:58:06.132Z,15.67
2022-11-04T03:00:37.507Z,14.90
2022-11-04T03:03:10.779Z,14.00
2022-11-04T03:05:43.508Z,14.85
2022-11-04T03:08:16.073Z,13.22
2022-11-04T03:10:49.007Z,12.70
2022-11-04T03:13:24.579Z,13.20
2022-11-04T03:15:57.193Z,12.20
2022-11-04T03:18:45.945Z,11.00
2022-11-04T03:21:18.331Z,10.20
2022-11-04T03:23:48.325Z,10.13
2022-11-04T03:26:23.860Z,9.60
2022-11-04T03:29:15.662Z,9.07
2022-11-04T03:32:03.660Z,9.10
2022-11-04T03:34:33.758Z,8.53
2022-11-04T03:37:03.993Z,8.68
2022-11-04T03:39:34.359Z,8.37
2022-11-04T03:42:08.724Z,7.07
2022-11-04T03:44:38.560Z,7.33
2022-11-04T03:47:08.327Z,6.27
2022-11-04T03:49:38.221Z,6.50
2022-11-04T03:52:09.429Z,6.70
2022-11-04T03:54:39.538Z,6.13
2022-11-04T03:57:20.790Z,6.13
2022-11-04T03:59:59.389Z,5.77
2022-11-04T04:02:44.363Z,5.97
2022-11-04T04:05:34.674Z,5.53
2022-11-04T04:08:22.446Z,5.70
2022-11-04T04:10:55.268Z,5.80
2022-11-04T04:13:29.988Z,5.42
2022-11-04T04:16:05.568Z,5.28
2022-11-04T04:18:54.114Z,6.13
2022-11-04T04:21:24.751Z,5.70
2022-11-04T04:24:15.578Z,6.03
2022-11-04T04:27:05.350Z,5.30
2022-11-04T04:29:35.825Z,5.63
2022-11-04T04:32:07.901Z,5.42
2022-11-04T04:34:38.513Z,5.30
2022-11-04T04:37:14.084Z,5.10
2022-11-04T04:40:03.839Z,5.80
2022-11-04T04:42:52.491Z,5.30
2022-11-04T04:45:27.746Z,4.58
2022-11-04T04:47:58.383Z,4.73
2022-11-04T04:50:33.766Z,4.90
2022-11-04T04:53:04.491Z,4.73
2022-11-04T04:55:39.008Z,5.30
2022-11-04T04:58:08.309Z,4.37
2022-11-04T05:00:38.066Z,4.57
2022-11-04T05:03:08.129Z,4.70
2022-11-04T05:05:38.506Z,4.50
2022-11-04T05:08:10.502Z,4.33
2022-11-04T05:10:40.734Z,4.20
2022-11-04T05:13:29.317Z,4.83
2022-11-04T05:16:00.928Z,4.27
2022-11-04T05:18:30.706Z,3.57
2022-11-04T05:21:02.040Z,4.40
2022-11-04T05:23:31.872Z,4.63
2022-11-04T05:26:01.497Z,3.45
2022-11-04T05:28:31.100Z,3.80
2022-11-04T05:31:06.079Z,3.70
2022-11-04T05:33:36.115Z,3.73
2022-11-04T05:36:15.226Z,4.05
2022-11-04T05:38:45.370Z,3.50
2022-11-04T05:41:16.863Z,3.47
2022-11-04T05:43:46.990Z,3.55
2022-11-04T05:46:17.131Z,3.30
2022-11-04T05:48:47.184Z,3.60
2022-11-04T05:51:19.635Z,3.90
2022-11-04T05:53:49.527Z,3.70
2022-11-04T05:56:19.327Z,3.63
2022-11-04T05:58:49.326Z,4.20
2022-11-04T06:01:36.777Z,3.93
2022-11-04T06:04:07.997Z,3.63
2022-11-04T06:06:38.990Z,4.00
2022-11-04T06:09:09.356Z,4.42
2022-11-04T06:11:39.691Z,4.57
2022-11-04T06:14:11.591Z,4.15
2022-11-04T06:16:41.217Z,4.27
2022-11-04T06:19:15.119Z,4.50
2022-11-04T06:21:42.828Z,4.07
2022-11-04T06:24:14.228Z,3.55
2022-11-04T06:26:44.014Z,3.70
2022-11-04T06:29:13.955Z,4.50
2022-11-04T06:31:43.814Z,4.93
2022-11-04T06:34:15.888Z,5.12
2022-11-04T06:36:46.094Z,4.70
2022-11-04T06:39:15.951Z,4.97
2022-11-04T06:41:50.436Z,4.20
2022-11-04T06:44:17.193Z,4.72
2022-11-04T06:46:47.084Z,4.93
2022-11-04T06:49:20.014Z,4.95
2022-11-04T06:51:49.925Z,5.67
2022-11-04T06:54:20.250Z,4.72
2022-11-04T06:56:50.491Z,4.73
2022-11-04T06:59:22.186Z,4.93
2022-11-04T07:01:52.400Z,5.23
2022-11-04T07:04:22.276Z,5.17
2022-11-04T07:06:52.042Z,4.93
2022-11-04T07:09:21.771Z,4.77
2022-11-04T07:11:51.544Z,5.17
2022-11-04T07:14:21.303Z,5.37
2022-11-04T07:16:51.612Z,5.30
2022-11-04T07:19:21.655Z,5.47
2022-11-04T07:21:51.433Z,5.90
2022-11-04T07:24:21.341Z,4.55
2022-11-04T07:26:51.229Z,5.37
2022-11-04T07:29:21.371Z,6.43
2022-11-04T07:31:51.563Z,6.22
2022-11-04T07:34:21.460Z,6.80
2022-11-04T07:36:51.628Z,6.87
2022-11-04T07:39:21.864Z,6.55
2022-11-04T07:41:54.339Z,6.43
2022-11-04T07:44:23.644Z,6.45
2022-11-04T07:46:53.686Z,5.53
2022-11-04T07:49:23.428Z,5.53
2022-11-04T07:51:53.457Z,6.13
2022-11-04T07:54:22.930Z,5.22
2022-11-04T07:56:53.016Z,5.47
2022-11-04T07:59:23.169Z,5.80
2022-11-04T08:01:54.006Z,5.90
2022-11-04T08:04:23.565Z,5.30
2022-11-04T08:06:53.404Z,5.67
2022-11-04T08:09:23.504Z,5.87
2022-11-04T08:11:53.416Z,5.33
2022-11-04T08:14:22.866Z,5.60
2022-11-04T08:16:52.840Z,6.37
2022-11-04T08:19:22.954Z,5.47
2022-11-04T08:21:52.780Z,5.17
2022-11-04T08:24:22.531Z,5.67
2022-11-04T08:26:52.346Z,5.63
2022-11-04T08:29:22.491Z,6.20
2022-11-04T08:31:52.310Z,5.77
2022-11-04T08:34:22.399Z,6.30
2022-11-04T08:36:53.950Z,5.60
2022-11-04T08:39:24.547Z,6.17
2022-11-04T08:41:54.523Z,6.17
2022-11-04T08:44:24.577Z,6.62
2022-11-04T08:46:54.372Z,6.30
2022-11-04T08:49:24.467Z,6.28
2022-11-04T08:51:58.499Z,6.50
2022-11-04T08:54:29.194Z,6.57
2022-11-04T08:56:59.021Z,7.30
2022-11-04T08:59:28.979Z,6.03
2022-11-04T09:02:01.521Z,6.80
2022-11-04T09:04:31.498Z,6.42
2022-11-04T09:07:08.061Z,6.55
2022-11-04T09:09:35.584Z,5.87
2022-11-04T09:12:05.785Z,6.45
2022-11-04T09:14:35.557Z,6.27
2022-11-04T09:17:05.674Z,6.10
2022-11-04T09:19:35.509Z,5.80
2022-11-04T09:22:05.272Z,6.57
2022-11-04T09:24:35.490Z,5.22
2022-11-04T09:27:06.807Z,6.03
2022-11-04T09:29:37.009Z,5.90
2022-11-04T09:32:06.950Z,5.03
2022-11-04T09:34:36.835Z,5.77
2022-11-04T09:37:06.611Z,4.93
2022-11-04T09:39:36.560Z,4.73
2022-11-04T09:42:27.219Z,4.57
2022-11-04T09:47:36.104Z,4.90
2022-11-04T09:50:12.164Z,5.17
2022-11-04T09:52:44.647Z,5.13
2022-11-04T09:55:23.005Z,4.70
2022-11-04T09:57:58.715Z,5.00
2022-11-04T10:00:31.442Z,5.30
2022-11-04T10:03:04.538Z,5.03
2022-11-04T10:05:45.369Z,4.80
2022-11-04T10:08:38.425Z,4.80
2022-11-04T10:11:17.003Z,5.03
2022-11-04T10:14:09.078Z,4.80
2022-11-04T10:16:59.902Z,5.28
2022-11-04T10:19:47.052Z,4.97
2022-11-04T10:22:31.238Z,5.30
2022-11-04T10:25:15.757Z,4.83
2022-11-04T10:27:48.202Z,4.93
2022-11-04T10:30:24.699Z,5.65
2022-11-04T10:33:13.931Z,4.67
2022-11-04T10:35:49.614Z,5.37
2022-11-04T10:38:22.551Z,5.33
2022-11-04T10:40:55.883Z,5.10
2022-11-04T10:43:37.885Z,9.83
2022-11-04T10:46:41.822Z,7.43
2022-11-04T10:49:25.095Z,5.77
2022-11-04T10:51:57.568Z,6.05
2022-11-04T10:54:28.441Z,5.50
2022-11-04T10:56:58.517Z,6.27
2022-11-04T10:59:33.674Z,5.37
2022-11-04T11:02:05.169Z,5.77
2022-11-04T11:04:38.019Z,5.80
2022-11-04T11:07:10.488Z,5.70
2022-11-04T11:09:54.406Z,5.92
2022-11-04T11:12:50.000Z,6.13
2022-11-04T11:15:00.496Z,6.05
2022-11-04T11:17:39.128Z,7.15
2022-11-04T11:20:23.417Z,6.40
2022-11-04T11:22:56.549Z,7.17
2022-11-04T11:25:35.040Z,7.57
2022-11-04T11:28:14.005Z,6.42
2022-11-04T11:30:49.883Z,7.47
2022-11-04T11:33:37.712Z,7.45
2022-11-04T11:36:23.010Z,8.18
2022-11-04T11:39:15.476Z,9.60
2022-11-04T11:41:56.757Z,9.37
2022-11-04T11:44:36.945Z,9.03
2022-11-04T11:47:09.379Z,8.33
2022-11-04T11:49:39.456Z,9.08
2022-11-04T11:52:24.517Z,8.97
2022-11-04T11:54:57.301Z,8.17
2022-11-04T11:57:32.756Z,9.33
2022-11-04T12:02:50.578Z,8.80
2022-11-04T12:14:00.323Z,10.03
2022-11-04T12:16:35.918Z,9.03
2022-11-04T12:19:27.778Z,8.97
2022-11-04T12:22:12.732Z,11.05
2022-11-04T12:24:45.831Z,8.53
2022-11-04T12:27:50.788Z,8.83
2022-11-04T12:30:32.414Z,9.78
2022-11-04T12:33:08.282Z,9.60
2022-11-04T12:35:46.701Z,10.40
2022-11-04T12:38:29.867Z,10.17
2022-11-04T12:41:37.540Z,10.07
2022-11-04T12:43:42.701Z,11.17
2022-11-04T12:46:40.246Z,13.68
2022-11-04T12:49:14.081Z,13.08
2022-11-04T12:51:55.812Z,13.55
2022-11-04T12:54:37.198Z,14.30
2022-11-04T12:57:26.501Z,14.63
2022-11-04T12:59:59.364Z,14.17
2022-11-04T13:02:35.301Z,16.67
2022-11-04T13:05:11.086Z,15.50
2022-11-04T13:07:46.448Z,14.50
2022-11-04T13:10:26.328Z,14.34
2022-11-04T13:13:00.756Z,15.13
2022-11-04T13:15:33.868Z,14.45
2022-11-04T13:18:08.839Z,14.80
2022-11-04T13:20:53.262Z,14.17
2022-11-04T13:23:44.127Z,14.17
2022-11-04T13:26:17.324Z,14.27
2022-11-04T13:28:51.393Z,16.00
2022-11-04T13:31:48.131Z,14.53
2022-11-04T13:34:39.276Z,15.08
2022-11-04T13:37:14.795Z,15.10
2022-11-04T13:39:53.158Z,14.13
2022-11-04T13:42:37.481Z,15.43
2022-11-04T13:45:14.732Z,15.05
2022-11-04T13:47:53.463Z,14.67
2022-11-04T13:50:37.204Z,14.43
2022-11-04T13:53:09.898Z,14.35
2022-11-04T13:55:52.287Z,13.03
2022-11-04T13:58:25.095Z,10.72
2022-11-04T14:01:14.298Z,10.23
2022-11-04T14:04:04.942Z,10.17
2022-11-04T14:06:57.255Z,9.00
2022-11-04T14:09:38.832Z,9.10
2022-11-04T14:12:20.461Z,10.13
2022-11-04T14:14:53.407Z,10.23
2022-11-04T14:17:38.152Z,10.77
2022-11-04T14:20:26.153Z,9.97
2022-11-04T14:22:59.583Z,10.57
2022-11-04T14:25:35.431Z,9.67
2022-11-04T14:28:13.451Z,10.10
2022-11-04T14:30:54.389Z,10.40
2022-11-04T14:33:54.313Z,10.57
2022-11-04T14:36:27.122Z,9.78
2022-11-04T14:39:05.870Z,10.75
2022-11-04T14:41:56.658Z,11.37
2022-11-04T14:44:31.920Z,11.30
2022-11-04T14:47:04.794Z,10.20
2022-11-04T14:49:49.317Z,9.33
2022-11-04T14:52:22.477Z,8.20
2022-11-04T14:54:55.569Z,8.03
2022-11-04T14:57:25.674Z,8.20
2022-11-04T14:59:55.482Z,8.17
2022-11-04T15:02:31.316Z,7.47
2022-11-04T15:05:02.887Z,6.85
2022-11-04T15:07:38.397Z,7.33
2022-11-04T15:10:20.441Z,7.47
2022-11-04T15:12:54.802Z,7.23
2022-11-04T15:15:29.876Z,7.77
2022-11-04T15:18:07.408Z,5.63
2022-11-04T15:20:40.362Z,2.93
2022-11-04T15:23:13.334Z,1.13
2022-11-04T15:25:48.925Z,0.60
2022-11-04T15:28:21.634Z,0.74
2022-11-04T15:31:06.466Z,0.90
2022-11-04T15:33:41.987Z,1.33
2022-11-04T15:36:20.225Z,1.22
2022-11-04T15:38:58.773Z,1.23
2022-11-04T15:41:49.013Z,1.03
2022-11-04T15:44:36.677Z,1.10
2022-11-04T15:47:21.235Z,1.20
2022-11-04T15:49:53.381Z,1.90
2022-11-04T15:52:26.762Z,1.77
2022-11-04T15:54:59.044Z,1.60
2022-11-04T15:57:38.028Z,1.62
2022-11-04T16:00:18.138Z,2.00
2022-11-04T16:02:59.632Z,1.50
2022-11-04T16:05:37.973Z,1.62
2022-11-04T16:08:28.662Z,1.60
2022-11-04T16:11:20.513Z,2.00
2022-11-04T16:13:51.126Z,1.40
2022-11-04T16:16:26.977Z,1.55
2022-11-04T16:18:59.723Z,1.90
2022-11-04T16:21:36.142Z,2.60
2022-11-04T16:24:24.738Z,3.60
2022-11-04T16:26:57.545Z,3.27
2022-11-04T16:29:33.100Z,2.90
2022-11-04T16:32:29.491Z,2.97
2022-11-04T16:35:02.090Z,2.27
2022-11-04T16:37:32.631Z,2.30
2022-11-04T16:40:04.072Z,2.47
2022-11-04T16:42:33.553Z,2.70
2022-11-04T16:45:05.179Z,2.07
2022-11-04T16:47:37.956Z,2.00
2022-11-04T16:50:10.557Z,1.97
2022-11-04T16:52:44.176Z,1.80
2022-11-04T16:55:12.504Z,2.20
2022-11-04T16:57:44.036Z,2.00
2022-11-04T17:00:24.121Z,2.02
2022-11-04T17:02:54.068Z,1.87
2022-11-04T17:05:23.813Z,1.93
2022-11-04T17:07:57.704Z,1.98
2022-11-04T17:10:28.312Z,2.37
2022-11-04T17:12:58.032Z,2.60
2022-11-04T17:15:27.810Z,2.00
2022-11-04T17:17:57.503Z,1.90
2022-11-04T17:20:27.389Z,2.00
2022-11-04T17:22:57.126Z,1.90
2022-11-04T17:25:29.712Z,2.20
2022-11-04T17:27:59.590Z,2.00
2022-11-04T17:30:29.373Z,2.40
2022-11-04T17:32:59.927Z,2.70
2022-11-04T17:35:29.734Z,2.80
2022-11-04T17:37:59.492Z,3.13
2022-11-04T17:40:29.187Z,3.35
2022-11-04T17:43:16.795Z,3.57
2022-11-04T17:45:48.363Z,4.70
2022-11-04T17:48:18.216Z,3.90
2022-11-04T17:50:48.282Z,3.67
2022-11-04T17:53:18.174Z,3.20
2022-11-04T17:55:48.420Z,3.17
2022-11-04T17:58:18.220Z,4.22
2022-11-04T18:00:48.157Z,4.30
2022-11-04T18:03:17.901Z,4.40
2022-11-04T18:05:47.714Z,4.67
2022-11-04T18:08:17.727Z,4.46
2022-11-04T18:10:48.104Z,4.15
2022-11-04T18:13:17.933Z,4.37
2022-11-04T18:15:48.136Z,4.53
2022-11-04T18:18:17.655Z,4.17
2022-11-04T18:20:48.223Z,4.07
2022-11-04T18:23:18.146Z,4.03
2022-11-04T18:25:50.789Z,3.40
2022-11-04T18:28:19.772Z,3.57
2022-11-04T18:30:49.375Z,3.95
2022-11-04T18:33:19.371Z,4.30
2022-11-04T18:35:49.095Z,3.77
2022-11-04T18:38:18.847Z,3.40
2022-11-04T18:40:48.604Z,3.30
2022-11-04T18:43:18.405Z,4.10
2022-11-04T18:45:48.477Z,3.60
2022-11-04T18:48:18.312Z,3.73
2022-11-04T18:50:48.754Z,3.60
2022-11-04T18:53:22.841Z,3.87
2022-11-04T18:55:50.200Z,4.30
2022-11-04T18:58:19.793Z,3.24
2022-11-04T19:00:49.672Z,3.80
2022-11-04T19:03:20.993Z,4.20
2022-11-04T19:05:50.724Z,3.53
2022-11-04T19:08:20.471Z,4.85
2022-11-04T19:11:00.769Z,4.73
2022-11-04T19:13:21.837Z,6.07
2022-11-04T19:15:51.925Z,5.57
2022-11-04T19:18:21.692Z,5.60
2022-11-04T19:20:51.445Z,5.30
2022-11-04T19:23:21.575Z,5.85
2022-11-04T19:25:51.303Z,5.60
2022-11-04T19:28:37.317Z,5.62
2022-11-04T19:30:57.974Z,5.40
2022-11-04T19:33:28.030Z,5.20
2022-11-04T19:35:58.930Z,5.10
2022-11-04T19:38:29.332Z,5.40
2022-11-04T19:41:04.581Z,5.43
2022-11-04T19:43:35.098Z,5.30
2022-11-04T19:46:06.614Z,6.07
2022-11-04T19:48:36.468Z,6.93
2022-11-04T19:51:06.317Z,6.73
2022-11-04T19:53:36.630Z,6.10
2022-11-04T19:56:08.385Z,5.60
2022-11-04T19:58:38.870Z,5.40
2022-11-04T20:01:09.363Z,5.60
2022-11-04T20:03:39.550Z,4.80
2022-11-04T20:06:12.698Z,5.07
2022-11-04T20:08:45.099Z,4.70
2022-11-04T20:11:15.551Z,4.70
2022-11-04T20:13:47.233Z,4.97
2022-11-04T20:16:25.312Z,5.27
2022-11-04T20:18:58.335Z,4.73
2022-11-04T20:21:32.237Z,5.63
2022-11-04T20:24:04.626Z,5.23
2022-11-04T20:26:35.859Z,5.20
2022-11-04T20:29:06.822Z,5.97
2022-11-04T20:31:39.240Z,6.03
2022-11-04T20:34:10.229Z,6.90
2022-11-04T20:36:41.011Z,5.37
2022-11-04T20:39:21.857Z,5.83
2022-11-04T20:41:51.678Z,6.03
2022-11-04T20:44:21.904Z,5.60
2022-11-04T20:46:52.019Z,6.05
2022-11-04T20:49:22.104Z,5.77
2022-11-04T20:51:55.334Z,6.00
2022-11-04T20:54:24.652Z,5.73
2022-11-04T20:56:54.561Z,6.20
2022-11-04T20:59:24.463Z,6.67
2022-11-04T21:01:54.707Z,7.60
2022-11-04T21:04:24.474Z,8.20
2022-11-04T21:06:54.314Z,8.63
2022-11-04T21:09:24.062Z,10.20
2022-11-04T21:11:54.172Z,9.70
2022-11-04T21:14:23.604Z,10.73
2022-11-04T21:16:53.745Z,11.65
2022-11-04T21:19:23.577Z,9.13
2022-11-04T21:21:53.576Z,8.20
2022-11-04T21:24:23.390Z,7.77
2022-11-04T21:26:53.145Z,7.73
2022-11-04T21:29:23.191Z,7.47
2022-11-04T21:31:53.518Z,8.17
2022-11-04T21:34:23.032Z,7.83
2022-11-04T21:36:53.285Z,6.80
2022-11-04T21:39:23.041Z,6.67
2022-11-04T21:41:52.842Z,6.87
2022-11-04T21:44:23.758Z,6.37
2022-11-04T21:46:53.640Z,6.47
2022-11-04T21:49:23.437Z,5.70
2022-11-04T21:51:53.190Z,5.70
2022-11-04T21:54:23.024Z,6.17
2022-11-04T21:56:52.777Z,6.00
2022-11-04T21:59:22.530Z,5.77
2022-11-04T22:01:53.048Z,5.70
2022-11-04T22:04:22.886Z,6.08
2022-11-04T22:06:52.399Z,6.50
2022-11-04T22:09:22.159Z,6.20
2022-11-04T22:11:51.935Z,5.97
2022-11-04T22:14:21.764Z,5.72
2022-11-04T22:16:51.583Z,5.50
2022-11-04T22:19:21.354Z,5.97
2022-11-04T22:21:51.154Z,5.97
2022-11-04T22:24:21.100Z,5.90
2022-11-04T22:26:51.220Z,6.23
2022-11-04T22:29:20.986Z,5.30
2022-11-04T22:31:50.716Z,7.03
2022-11-04T22:34:20.214Z,6.20
2022-11-04T22:36:50.037Z,7.23
2022-11-04T22:39:19.952Z,6.03
2022-11-04T22:41:49.861Z,6.20
2022-11-04T22:44:19.483Z,6.23
2022-11-04T22:46:49.548Z,7.22
2022-11-04T22:49:19.401Z,6.93
2022-11-04T22:51:49.241Z,7.20
2022-11-04T22:54:18.729Z,7.40
2022-11-04T22:56:48.534Z,7.93
2022-11-04T22:59:18.433Z,7.10
2022-11-04T23:01:48.723Z,6.77
2022-11-04T23:04:18.674Z,7.90
2022-11-04T23:06:48.428Z,7.20
2022-11-04T23:09:18.302Z,6.83
2022-11-04T23:12:05.573Z,7.60
2022-11-04T23:14:37.083Z,6.70
2022-11-04T23:17:38.659Z,7.13
2022-11-04T23:20:12.984Z,7.37
2022-11-04T23:23:00.812Z,6.93
2022-11-04T23:25:31.018Z,6.15
2022-11-04T23:28:18.355Z,6.73
2022-11-04T23:30:51.137Z,6.40
2022-11-04T23:33:22.517Z,8.40
2022-11-04T23:36:09.769Z,6.43
2022-11-04T23:38:39.514Z,6.60
2022-11-04T23:41:26.996Z,5.83
2022-11-04T23:43:56.771Z,6.23
2022-11-04T23:46:44.358Z,6.45
2022-11-04T23:49:32.002Z,7.03
2022-11-04T23:52:19.155Z,6.50
2022-11-04T23:55:06.958Z,5.43
2022-11-04T23:57:54.656Z,5.70
